createdAt,value
2023-05-16T00:00:58.721Z,57.90
2023-05-16T00:03:25.709Z,59.40
2023-05-16T00:05:52.414Z,59.60
2023-05-16T00:08:19.038Z,60.10
2023-05-16T00:10:45.700Z,60.80
2023-05-16T00:13:13.579Z,61.70
2023-05-16T00:15:40.202Z,61.60
2023-05-16T00:18:07.175Z,61.10
2023-05-16T00:20:34.614Z,62.00
2023-05-16T00:23:01.369Z,63.90
2023-05-16T00:25:28.636Z,61.80
2023-05-16T00:27:55.355Z,63.50
2023-05-16T00:30:22.832Z,64.60
2023-05-16T00:32:49.574Z,64.10
2023-05-16T00:35:16.226Z,64.30
2023-05-16T00:37:42.827Z,64.20
2023-05-16T00:40:09.862Z,63.80
2023-05-16T00:42:36.532Z,63.50
2023-05-16T00:45:04.006Z,64.30
2023-05-16T00:47:30.875Z,65.60
2023-05-16T00:49:57.677Z,65.60
2023-05-16T00:52:24.448Z,65.10
2023-05-16T00:54:51.265Z,64.10
2023-05-16T00:59:46.300Z,65.20
2023-05-16T01:02:13.236Z,65.50
2023-05-16T01:09:35.847Z,65.50
2023-05-16T01:12:08.883Z,66.00
2023-05-16T01:17:07.231Z,63.70
2023-05-16T01:19:36.903Z,63.80
2023-05-16T01:22:13.616Z,65.40
2023-05-16T01:29:35.214Z,70.90
2023-05-16T01:32:01.902Z,72.70
2023-05-16T01:34:28.444Z,76.50
2023-05-16T01:37:07.040Z,77.10
2023-05-16T01:39:37.434Z,77.90
2023-05-16T01:44:49.622Z,78.10
2023-05-16T01:47:17.458Z,77.10
2023-05-16T01:49:54.296Z,77.00
2023-05-16T01:52:32.530Z,76.70
2023-05-16T01:55:00.627Z,78.60
2023-05-16T01:57:28.066Z,78.10
2023-05-16T01:59:54.698Z,78.50
2023-05-16T02:02:21.329Z,78.50
2023-05-16T02:04:47.922Z,78.50
2023-05-16T02:07:15.260Z,77.10
2023-05-16T02:09:41.825Z,77.50
2023-05-16T02:12:08.581Z,75.60
2023-05-16T02:14:35.212Z,76.90
2023-05-16T02:17:01.800Z,75.80
2023-05-16T02:19:28.658Z,76.00
2023-05-16T02:21:55.311Z,76.30
2023-05-16T02:24:21.998Z,76.90
2023-05-16T02:26:48.559Z,77.40
2023-05-16T02:29:16.576Z,76.10
2023-05-16T02:31:43.340Z,76.60
2023-05-16T02:34:11.024Z,76.00
2023-05-16T02:36:37.722Z,75.30
2023-05-16T02:39:04.320Z,75.10
2023-05-16T02:41:31.722Z,76.30
2023-05-16T02:43:58.577Z,77.00
2023-05-16T02:46:33.638Z,77.00
2023-05-16T02:49:00.547Z,78.20
2023-05-16T02:51:27.691Z,77.80
2023-05-16T02:53:54.357Z,79.00
2023-05-16T02:56:21.843Z,79.30
2023-05-16T02:58:49.370Z,79.50
2023-05-16T03:01:16.720Z,80.60
2023-05-16T03:03:43.418Z,80.70
2023-05-16T03:06:10.212Z,80.40
2023-05-16T03:08:36.954Z,81.90
2023-05-16T03:11:03.652Z,80.60
2023-05-16T03:13:30.341Z,80.40
2023-05-16T03:15:56.938Z,80.10
2023-05-16T03:18:23.493Z,80.90
2023-05-16T03:20:53.342Z,82.40
2023-05-16T03:23:20.454Z,82.80
2023-05-16T03:28:15.740Z,84.00
2023-05-16T03:30:42.397Z,84.50
2023-05-16T03:33:09.235Z,84.30
2023-05-16T03:35:36.385Z,85.60
2023-05-16T03:38:03.594Z,86.50
2023-05-16T03:40:30.335Z,85.70
2023-05-16T03:42:56.936Z,84.00
2023-05-16T03:45:23.496Z,84.80
2023-05-16T03:47:50.876Z,84.90
2023-05-16T03:50:17.749Z,86.40
2023-05-16T03:52:44.493Z,86.40
2023-05-16T03:55:15.982Z,86.40
2023-05-16T03:57:42.657Z,87.30
2023-05-16T04:00:12.169Z,87.30
2023-05-16T04:02:42.888Z,87.90
2023-05-16T04:05:10.492Z,90.30
2023-05-16T04:07:37.569Z,89.70
2023-05-16T04:10:04.694Z,89.70
2023-05-16T04:12:31.633Z,89.00
2023-05-16T04:14:58.263Z,89.10
2023-05-16T04:17:24.957Z,88.80
2023-05-16T04:19:51.607Z,86.70
2023-05-16T04:22:18.204Z,86.80
2023-05-16T04:24:44.744Z,86.90
2023-05-16T04:27:12.187Z,86.80
2023-05-16T04:29:38.773Z,84.70
2023-05-16T04:32:07.491Z,83.00
2023-05-16T04:34:39.883Z,82.60
2023-05-16T04:37:07.654Z,82.30
2023-05-16T04:39:34.718Z,81.90
2023-05-16T04:42:01.731Z,82.40
2023-05-16T04:44:28.433Z,81.30
2023-05-16T04:46:55.663Z,80.00
2023-05-16T04:49:22.465Z,79.40
2023-05-16T04:51:49.074Z,79.30
2023-05-16T04:54:15.729Z,79.90
2023-05-16T04:56:42.461Z,79.10
2023-05-16T04:59:09.078Z,79.00
2023-05-16T05:01:35.749Z,79.00
2023-05-16T05:04:02.361Z,79.20
2023-05-16T05:06:28.919Z,79.10
2023-05-16T05:08:55.713Z,79.20
2023-05-16T05:11:23.176Z,79.30
2023-05-16T05:13:51.978Z,78.10
2023-05-16T05:16:19.452Z,77.20
2023-05-16T05:18:46.201Z,76.00
2023-05-16T05:21:12.937Z,74.20
2023-05-16T05:23:39.871Z,74.10
2023-05-16T05:26:06.673Z,73.20
2023-05-16T05:28:33.247Z,73.00
2023-05-16T05:30:59.785Z,69.60
2023-05-16T05:33:27.139Z,68.80
2023-05-16T05:35:54.168Z,69.00
2023-05-16T05:38:20.920Z,69.60
2023-05-16T05:40:47.933Z,68.40
2023-05-16T05:43:14.481Z,67.60
2023-05-16T05:45:41.611Z,66.70
2023-05-16T05:48:08.482Z,62.80
2023-05-16T05:50:35.084Z,62.90
2023-05-16T05:53:01.640Z,62.90
2023-05-16T05:55:28.500Z,64.00
2023-05-16T05:57:55.416Z,63.00
2023-05-16T06:00:22.111Z,61.20
2023-05-16T06:02:48.793Z,59.60
2023-05-16T06:05:15.527Z,58.10
2023-05-16T06:07:42.406Z,53.60
2023-05-16T06:10:09.211Z,53.90
2023-05-16T06:12:35.821Z,49.20
2023-05-16T06:15:02.586Z,45.50
2023-05-16T06:17:29.196Z,43.50
2023-05-16T06:19:55.903Z,40.40
2023-05-16T06:22:22.443Z,35.90
2023-05-16T06:24:49.030Z,29.60
2023-05-16T06:27:15.610Z,19.90
2023-05-16T06:29:42.169Z,20.30
2023-05-16T06:32:10.315Z,17.80
2023-05-16T06:34:39.404Z,14.00
2023-05-16T06:37:06.134Z,13.30
2023-05-16T06:39:32.814Z,10.30
2023-05-16T06:41:59.413Z,11.40
2023-05-16T06:44:25.988Z,10.90
2023-05-16T06:46:53.015Z,5.70
2023-05-16T06:49:19.619Z,5.80
2023-05-16T06:51:46.635Z,5.80
2023-05-16T06:54:13.223Z,1.60
2023-05-16T06:56:39.814Z,1.00
2023-05-16T06:59:06.719Z,1.00
2023-05-16T07:01:33.326Z,1.00
2023-05-16T07:03:59.999Z,1.00
2023-05-16T07:06:26.828Z,1.00
2023-05-16T07:08:53.907Z,1.00
2023-05-16T07:11:21.411Z,1.00
2023-05-16T07:13:48.037Z,1.00
2023-05-16T07:16:14.751Z,1.00
2023-05-16T07:18:41.425Z,1.00
2023-05-16T07:21:08.241Z,1.00
2023-05-16T07:23:34.959Z,1.00
2023-05-16T07:26:01.592Z,1.00
2023-05-16T07:28:28.190Z,1.00
2023-05-16T07:45:42.248Z,1.00
2023-05-16T07:48:08.887Z,1.00
2023-05-16T07:53:02.720Z,1.00
2023-05-16T07:55:29.533Z,1.00
2023-05-16T07:57:56.601Z,1.00
2023-05-16T08:00:23.289Z,1.00
2023-05-16T08:02:50.138Z,1.00
2023-05-16T08:05:16.855Z,1.00
2023-05-16T08:07:44.605Z,1.00
2023-05-16T08:10:13.339Z,1.00
2023-05-16T08:12:40.484Z,1.00
2023-05-16T08:15:07.606Z,1.00
2023-05-16T08:17:34.819Z,1.00
2023-05-16T08:20:01.869Z,1.00
2023-05-16T08:22:28.518Z,1.00
2023-05-16T08:24:58.134Z,1.00
2023-05-16T08:27:24.760Z,1.00
2023-05-16T08:29:51.383Z,1.00
2023-05-16T08:32:17.952Z,1.00
2023-05-16T08:34:44.641Z,1.00
2023-05-16T08:37:11.344Z,1.00
2023-05-16T08:39:40.876Z,1.00
2023-05-16T08:42:07.848Z,1.00
2023-05-16T08:44:34.598Z,1.00
2023-05-16T08:47:05.567Z,1.00
2023-05-16T08:49:34.350Z,1.00
2023-05-16T08:52:02.241Z,1.00
2023-05-16T08:54:29.084Z,1.00
2023-05-16T08:56:56.112Z,1.00
2023-05-16T08:59:23.072Z,1.00
2023-05-16T09:01:49.736Z,1.00
2023-05-16T09:04:16.465Z,1.00
2023-05-16T09:06:43.311Z,1.00
2023-05-16T09:09:12.921Z,1.00
2023-05-16T09:11:39.697Z,1.00
2023-05-16T09:14:06.443Z,1.00
2023-05-16T09:16:34.543Z,1.00
2023-05-16T09:19:02.126Z,1.00
2023-05-16T09:21:29.773Z,1.00
2023-05-16T09:23:56.564Z,1.00
2023-05-16T09:26:23.443Z,1.00
2023-05-16T09:28:53.276Z,1.00
2023-05-16T09:31:21.001Z,1.00
2023-05-16T09:33:48.955Z,1.00
2023-05-16T09:36:15.804Z,1.00
2023-05-16T09:38:42.423Z,1.00
2023-05-16T09:41:10.153Z,1.00
2023-05-16T09:43:40.306Z,1.00
2023-05-16T09:46:08.961Z,1.00
2023-05-16T09:48:36.298Z,1.00
2023-05-16T09:51:05.706Z,1.00
2023-05-16T09:53:33.232Z,1.00
2023-05-16T09:56:04.200Z,1.00
2023-05-16T09:58:31.813Z,1.00
2023-05-16T10:00:59.088Z,1.00
2023-05-16T10:03:27.343Z,1.00
2023-05-16T10:05:54.418Z,1.00
2023-05-16T10:08:25.343Z,1.00
2023-05-16T10:10:53.259Z,1.00
2023-05-16T10:13:23.875Z,1.00
2023-05-16T10:15:51.669Z,1.00
2023-05-16T10:18:19.721Z,1.00
2023-05-16T10:20:49.176Z,1.00
2023-05-16T10:23:17.856Z,1.00
2023-05-16T10:25:44.825Z,1.00
2023-05-16T10:28:11.700Z,1.00
2023-05-16T10:30:40.594Z,1.00
2023-05-16T10:33:07.515Z,1.00
2023-05-16T10:35:34.676Z,1.00
2023-05-16T10:38:01.588Z,1.00
2023-05-16T10:40:29.029Z,1.00
2023-05-16T10:43:02.907Z,1.00
2023-05-16T10:45:29.973Z,1.00
2023-05-16T10:47:58.454Z,1.00
2023-05-16T10:50:31.623Z,1.00
2023-05-16T10:53:10.709Z,1.00
2023-05-16T10:55:38.792Z,1.00
2023-05-16T10:58:05.388Z,1.00
2023-05-16T11:00:32.201Z,1.00
2023-05-16T11:03:06.238Z,1.00
2023-05-16T11:05:33.526Z,1.00
2023-05-16T11:08:05.194Z,1.00
2023-05-16T11:10:32.702Z,1.00
2023-05-16T11:13:07.708Z,1.00
2023-05-16T11:15:34.741Z,1.00
2023-05-16T11:18:05.232Z,1.00
2023-05-16T11:20:34.769Z,1.00
2023-05-16T11:23:22.964Z,1.00
2023-05-16T11:25:54.285Z,1.00
2023-05-16T11:28:21.481Z,1.00
2023-05-16T11:30:49.674Z,1.00
2023-05-16T11:33:16.694Z,1.00
2023-05-16T11:35:43.536Z,1.00
2023-05-16T11:38:16.572Z,1.00
2023-05-16T11:40:44.541Z,1.00
2023-05-16T11:43:12.376Z,1.00
2023-05-16T11:45:39.018Z,1.00
2023-05-16T11:48:06.402Z,1.00
2023-05-16T11:53:01.621Z,1.00
2023-05-16T12:00:35.621Z,1.00
2023-05-16T12:08:02.573Z,1.00
2023-05-16T12:10:31.736Z,1.00
2023-05-16T12:12:58.452Z,1.00
2023-05-16T12:15:25.354Z,1.00
2023-05-16T12:22:46.428Z,1.00
2023-05-16T12:25:26.788Z,1.00
2023-05-16T12:27:54.697Z,1.00
2023-05-16T12:30:25.482Z,1.00
2023-05-16T12:32:52.976Z,1.00
2023-05-16T12:35:19.724Z,1.00
2023-05-16T12:37:46.564Z,1.00
2023-05-16T12:40:13.432Z,1.00
2023-05-16T12:42:40.108Z,1.00
2023-05-16T12:45:14.339Z,1.00
2023-05-16T12:47:40.988Z,1.00
2023-05-16T12:50:12.792Z,1.00
2023-05-16T12:52:46.480Z,1.00
2023-05-16T12:55:13.226Z,1.00
2023-05-16T12:57:42.130Z,1.00
2023-05-16T13:00:09.838Z,1.00
2023-05-16T13:02:36.624Z,1.00
2023-05-16T13:05:03.986Z,1.00
2023-05-16T13:07:30.956Z,1.00
2023-05-16T13:09:57.556Z,1.00
2023-05-16T13:12:27.083Z,1.00
2023-05-16T13:14:54.713Z,1.00
2023-05-16T13:17:21.404Z,1.00
2023-05-16T13:19:49.030Z,1.00
2023-05-16T13:22:16.197Z,1.00
2023-05-16T13:24:42.786Z,1.00
2023-05-16T13:27:09.369Z,1.00
2023-05-16T13:29:36.108Z,1.00
2023-05-16T13:32:02.767Z,1.00
2023-05-16T13:34:29.496Z,1.00
2023-05-16T13:36:56.127Z,1.00
2023-05-16T13:39:22.933Z,1.00
2023-05-16T13:41:49.717Z,1.00
2023-05-16T13:44:16.633Z,1.00
2023-05-16T13:46:43.419Z,1.00
2023-05-16T13:49:10.031Z,1.00
2023-05-16T13:51:37.114Z,1.00
2023-05-16T13:54:03.770Z,1.00
2023-05-16T13:56:30.447Z,1.00
2023-05-16T13:59:02.174Z,1.00
2023-05-16T14:01:30.700Z,1.00
2023-05-16T14:03:57.469Z,1.00
2023-05-16T14:06:24.216Z,1.00
2023-05-16T14:08:50.805Z,1.00
2023-05-16T14:11:19.590Z,1.00
2023-05-16T14:13:46.601Z,1.00
2023-05-16T14:18:40.332Z,1.00
2023-05-16T14:21:07.132Z,1.00
2023-05-16T14:23:33.714Z,1.00
2023-05-16T14:26:01.004Z,1.00
2023-05-16T14:28:27.614Z,1.00
2023-05-16T14:30:54.761Z,1.00
2023-05-16T14:33:21.457Z,1.00
2023-05-16T14:38:16.769Z,1.00
2023-05-16T14:43:10.761Z,1.00
2023-05-16T14:45:38.281Z,1.00
2023-05-16T14:48:08.361Z,1.00
2023-05-16T14:50:35.303Z,1.00
2023-05-16T14:53:01.957Z,1.00
2023-05-16T14:55:29.110Z,1.00
2023-05-16T14:57:59.654Z,1.00
2023-05-16T15:00:27.211Z,1.00
2023-05-16T15:02:54.233Z,1.00
2023-05-16T15:05:20.944Z,1.00
2023-05-16T15:07:47.666Z,1.00
2023-05-16T15:10:14.308Z,1.00
2023-05-16T15:12:41.108Z,1.00
2023-05-16T15:15:11.925Z,1.00
2023-05-16T15:20:08.920Z,1.00
2023-05-16T15:22:38.739Z,1.00
2023-05-16T15:25:05.815Z,1.00
2023-05-16T15:29:59.937Z,1.00
2023-05-16T15:32:26.850Z,1.00
2023-05-16T15:39:47.773Z,1.00
2023-05-16T15:42:14.842Z,1.00
2023-05-16T15:44:41.549Z,1.00
2023-05-16T15:47:09.288Z,1.00
2023-05-16T15:49:36.113Z,1.00
2023-05-16T15:52:02.743Z,1.00
2023-05-16T15:54:30.959Z,1.00
2023-05-16T15:56:57.670Z,1.00
2023-05-16T15:59:24.387Z,1.00
2023-05-16T16:01:53.005Z,1.00
2023-05-16T16:04:23.255Z,1.00
2023-05-16T16:06:50.483Z,1.00
2023-05-16T16:09:17.552Z,1.00
2023-05-16T16:11:44.222Z,1.00
2023-05-16T16:14:13.058Z,1.00
2023-05-16T16:16:40.637Z,1.00
2023-05-16T16:19:08.096Z,1.00
2023-05-16T16:21:35.073Z,1.00
2023-05-16T16:24:01.855Z,1.00
2023-05-16T16:26:28.598Z,1.00
2023-05-16T16:28:55.277Z,1.00
2023-05-16T16:31:24.547Z,1.00
2023-05-16T16:33:51.197Z,1.00
2023-05-16T16:36:18.116Z,1.00
2023-05-16T16:38:44.738Z,1.00
2023-05-16T16:41:11.562Z,1.00
2023-05-16T16:43:41.277Z,1.00
2023-05-16T16:46:08.335Z,1.00
2023-05-16T16:48:36.448Z,1.00
2023-05-16T16:51:03.217Z,1.00
2023-05-16T16:53:29.826Z,1.00
2023-05-16T16:55:56.614Z,1.00
2023-05-16T16:58:23.403Z,1.00
2023-05-16T17:00:50.090Z,1.00
2023-05-16T17:03:17.059Z,1.00
2023-05-16T17:05:44.988Z,1.00
2023-05-16T17:08:12.150Z,1.00
2023-05-16T17:10:39.295Z,1.00
2023-05-16T17:13:10.136Z,1.00
2023-05-16T17:15:37.664Z,1.00
2023-05-16T17:18:07.231Z,1.00
2023-05-16T17:20:34.424Z,1.00
2023-05-16T17:23:01.584Z,1.00
2023-05-16T17:27:55.992Z,1.00
2023-05-16T17:30:22.849Z,1.00
2023-05-16T17:52:34.643Z,1.00
2023-05-16T17:55:01.245Z,1.00
2023-05-16T18:14:39.220Z,1.00
2023-05-16T18:17:06.407Z,1.00
2023-05-16T18:19:35.608Z,1.00
2023-05-16T18:31:58.397Z,1.00
2023-05-16T18:44:17.232Z,1.00
2023-05-16T18:46:45.337Z,1.00
2023-05-16T19:08:49.732Z,1.00
2023-05-16T19:11:17.370Z,1.00
2023-05-16T19:16:11.134Z,1.00
2023-05-16T19:18:38.102Z,1.00
2023-05-16T19:21:04.958Z,1.00
2023-05-16T19:23:31.797Z,1.00
2023-05-16T19:30:52.571Z,1.00
2023-05-16T19:35:46.513Z,1.00
2023-05-16T19:40:40.244Z,1.00
2023-05-16T19:43:06.878Z,1.00
2023-05-16T19:55:22.348Z,1.00
2023-05-16T20:07:41.330Z,1.00
2023-05-16T20:10:09.309Z,1.00
2023-05-16T20:12:36.250Z,1.00
2023-05-16T20:15:04.988Z,1.00
2023-05-16T20:17:31.857Z,1.00
2023-05-16T20:19:58.544Z,1.00
2023-05-16T20:22:25.391Z,1.00
2023-05-16T20:24:52.249Z,1.00
2023-05-16T20:27:19.176Z,1.00
2023-05-16T20:29:45.991Z,1.00
2023-05-16T20:32:12.619Z,1.00
2023-05-16T20:34:41.666Z,1.00
2023-05-16T20:37:08.416Z,1.00
2023-05-16T20:39:35.043Z,1.00
2023-05-16T20:42:01.744Z,1.00
2023-05-16T20:44:33.631Z,1.00
2023-05-16T20:49:27.252Z,1.00
2023-05-16T20:51:54.249Z,1.00
2023-05-16T20:54:20.961Z,1.00
2023-05-16T20:59:14.729Z,1.00
2023-05-16T21:06:35.446Z,1.00
2023-05-16T21:13:59.754Z,1.00
2023-05-16T21:16:27.348Z,1.00
2023-05-16T21:18:54.168Z,1.00
2023-05-16T21:21:21.266Z,1.00
2023-05-16T21:23:47.936Z,1.00
2023-05-16T21:36:19.052Z,1.00
2023-05-16T21:38:45.718Z,1.00
2023-05-16T22:30:18.697Z,1.00
2023-05-16T22:32:46.785Z,1.00
2023-05-16T22:35:13.846Z,1.00
2023-05-16T22:37:40.533Z,1.00
2023-05-16T22:40:08.030Z,1.00
2023-05-16T22:42:34.676Z,1.00
2023-05-16T22:45:01.310Z,1.00
2023-05-16T22:47:28.815Z,1.00
2023-05-16T22:49:55.582Z,1.00
2023-05-16T22:52:22.206Z,1.00
2023-05-16T22:54:48.803Z,1.00
2023-05-16T22:57:15.548Z,1.00
2023-05-16T22:59:42.153Z,1.00
2023-05-16T23:02:08.743Z,1.00
2023-05-16T23:04:35.403Z,1.00
2023-05-16T23:07:02.003Z,1.00
2023-05-16T23:09:29.123Z,1.00
2023-05-16T23:11:55.697Z,1.00
2023-05-16T23:14:22.290Z,1.00
2023-05-16T23:16:48.881Z,1.00
2023-05-16T23:19:15.575Z,1.00
2023-05-16T23:21:42.761Z,1.00
2023-05-16T23:24:09.378Z,1.00
2023-05-16T23:29:06.104Z,1.00
2023-05-16T23:31:32.823Z,1.00
2023-05-16T23:33:59.548Z,1.00
2023-05-16T23:36:26.314Z,1.00
2023-05-16T23:38:52.932Z,1.00
2023-05-16T23:41:19.598Z,1.00
2023-05-16T23:43:46.208Z,1.00
2023-05-16T23:46:12.762Z,1.30
2023-05-16T23:48:39.929Z,1.20
2023-05-16T23:51:07.662Z,2.20
2023-05-16T23:53:37.198Z,4.90
2023-05-16T23:56:03.926Z,5.40
2023-05-16T23:58:30.556Z,4.80
